createdAt,value
2019-03-06T00:00:42.857Z,-956.66
2019-03-06T00:01:43.180Z,-963.40
2019-03-06T00:02:43.424Z,-954.36
2019-03-06T00:03:43.752Z,-957.80
2019-03-06T00:04:43.960Z,-957.66
2019-03-06T00:05:44.231Z,-959.25
2019-03-06T00:06:44.548Z,-959.57
2019-03-06T00:07:44.806Z,-961.05
2019-03-06T00:08:45.102Z,-962.19
2019-03-06T00:09:45.366Z,-957.25
2019-03-06T00:10:45.646Z,-954.39
2019-03-06T00:11:45.956Z,-962.13
2019-03-06T00:12:46.241Z,-965.44
2019-03-06T00:13:46.497Z,-959.80
2019-03-06T00:14:46.752Z,-961.79
2019-03-06T00:15:47.029Z,-958.07
2019-03-06T00:16:47.340Z,-959.15
2019-03-06T00:17:47.581Z,-960.30
2019-03-06T00:18:47.859Z,-956.93
2019-03-06T00:19:48.145Z,-961.92
2019-03-06T00:20:48.506Z,-969.88
2019-03-06T00:21:48.698Z,-961.27
2019-03-06T00:22:48.938Z,-967.82
2019-03-06T00:23:49.235Z,-961.25
2019-03-06T00:24:49.524Z,-963.01
2019-03-06T00:25:54.661Z,-966.18
2019-03-06T00:26:50.102Z,-963.33
2019-03-06T00:27:50.345Z,-965.69
2019-03-06T00:28:50.739Z,-964.87
2019-03-06T00:30:04.632Z,-961.33
2019-03-06T00:30:52.183Z,-968.82
2019-03-06T00:31:51.472Z,-959.46
2019-03-06T00:32:51.734Z,-970.70
2019-03-06T00:33:51.991Z,-966.42
2019-03-06T00:34:52.297Z,-968.95
2019-03-06T00:35:52.575Z,-968.09
2019-03-06T00:36:52.943Z,-971.16
2019-03-06T00:37:53.132Z,-971.19
2019-03-06T00:38:53.378Z,-963.98
2019-03-06T00:39:53.673Z,-964.74
2019-03-06T00:40:53.974Z,-964.62
2019-03-06T00:41:54.277Z,-958.09
2019-03-06T00:42:54.526Z,-956.90
2019-03-06T00:43:54.802Z,-959.14
2019-03-06T00:44:55.126Z,-957.56
2019-03-06T00:45:55.329Z,-957.57
2019-03-06T00:46:55.640Z,-955.51
2019-03-06T00:47:55.889Z,-963.24
2019-03-06T00:48:56.170Z,-958.70
2019-03-06T00:49:56.477Z,-961.32
2019-03-06T00:50:56.714Z,-963.27
2019-03-06T00:51:57.030Z,-958.61
2019-03-06T00:52:57.338Z,-965.01
2019-03-06T00:53:57.649Z,-968.77
2019-03-06T00:54:57.862Z,-958.74
2019-03-06T00:55:58.580Z,-957.62
2019-03-06T00:56:58.405Z,-963.10
2019-03-06T00:57:58.670Z,-968.23
2019-03-06T00:58:58.945Z,-965.72
2019-03-06T00:59:59.238Z,-965.76
2019-03-06T01:00:59.504Z,-963.89
2019-03-06T01:01:59.895Z,-963.11
2019-03-06T01:03:00.049Z,-962.38
2019-03-06T01:04:00.327Z,-964.02
2019-03-06T01:05:00.611Z,-961.71
2019-03-06T01:06:00.871Z,-964.34
2019-03-06T01:07:01.162Z,-965.34
2019-03-06T01:08:01.419Z,-964.40
2019-03-06T01:09:01.709Z,-965.41
2019-03-06T01:10:02.053Z,-965.50
2019-03-06T01:11:02.254Z,-968.67
2019-03-06T01:12:02.560Z,-964.29
2019-03-06T01:13:02.792Z,-969.29
2019-03-06T01:14:03.085Z,-962.61
2019-03-06T01:15:03.364Z,-965.35
2019-03-06T01:16:03.639Z,-964.77
2019-03-06T01:17:03.936Z,-966.11
2019-03-06T01:18:04.206Z,-970.23
2019-03-06T01:19:04.447Z,-966.18
2019-03-06T01:20:04.750Z,-968.25
2019-03-06T01:21:05.019Z,-970.57
2019-03-06T01:22:05.320Z,-969.48
2019-03-06T01:23:05.564Z,-965.81
2019-03-06T01:24:05.825Z,-968.18
2019-03-06T01:25:06.132Z,-966.73
2019-03-06T01:26:06.474Z,-968.46
2019-03-06T01:27:06.972Z,-910.45
2019-03-06T01:28:06.964Z,-918.72
2019-03-06T01:29:07.244Z,-919.78
2019-03-06T01:30:07.519Z,-913.38
2019-03-06T01:31:07.794Z,-917.64
2019-03-06T01:32:08.102Z,-914.23
2019-03-06T01:33:08.360Z,-913.58
2019-03-06T01:34:08.740Z,-913.73
2019-03-06T01:35:09.037Z,-918.49
2019-03-06T01:36:09.189Z,-916.41
2019-03-06T01:37:09.511Z,-917.94
2019-03-06T01:38:09.775Z,-921.49
2019-03-06T01:39:10.037Z,-915.10
2019-03-06T01:40:10.329Z,-922.07
2019-03-06T01:41:10.567Z,-917.89
2019-03-06T01:42:10.860Z,-917.18
2019-03-06T01:43:11.293Z,-919.19
2019-03-06T01:44:11.447Z,-919.76
2019-03-06T01:45:11.747Z,-920.66
2019-03-06T01:46:11.987Z,-919.20
2019-03-06T01:47:12.283Z,-923.34
2019-03-06T01:48:12.584Z,-921.65
2019-03-06T01:49:12.833Z,-923.01
2019-03-06T01:50:13.127Z,-920.16
2019-03-06T01:51:13.446Z,-926.39
2019-03-06T01:52:13.648Z,-924.58
2019-03-06T01:53:13.998Z,-921.70
2019-03-06T01:54:14.222Z,-920.29
2019-03-06T01:55:14.520Z,-921.67
2019-03-06T01:56:14.816Z,-924.97
2019-03-06T01:57:15.051Z,-920.07
2019-03-06T01:58:15.346Z,-921.88
2019-03-06T01:59:15.668Z,-920.91
2019-03-06T02:00:15.874Z,-920.07
2019-03-06T02:01:16.140Z,-916.66
2019-03-06T02:02:16.420Z,-915.93
2019-03-06T02:03:16.723Z,-916.20
2019-03-06T02:04:16.973Z,-919.62
2019-03-06T02:05:17.272Z,-916.74
2019-03-06T02:06:17.534Z,-919.31
2019-03-06T02:07:17.827Z,-917.27
2019-03-06T02:08:18.177Z,-921.09
2019-03-06T02:09:18.372Z,-918.72
2019-03-06T02:10:18.666Z,-920.51
2019-03-06T02:11:18.928Z,-914.92
2019-03-06T02:12:19.206Z,-921.98
2019-03-06T02:13:19.496Z,-918.62
2019-03-06T02:14:19.763Z,-920.55
2019-03-06T02:15:20.040Z,-918.46
2019-03-06T02:16:20.396Z,-918.20
2019-03-06T02:17:20.584Z,-919.82
2019-03-06T02:18:20.872Z,-920.66
2019-03-06T02:19:21.122Z,-916.80
2019-03-06T02:20:21.431Z,-917.83
2019-03-06T02:21:21.708Z,-920.78
2019-03-06T02:22:21.984Z,-922.86
2019-03-06T02:23:22.271Z,-915.46
2019-03-06T02:24:22.628Z,-914.49
2019-03-06T02:25:22.801Z,-919.43
2019-03-06T02:26:23.078Z,-915.65
2019-03-06T02:27:23.353Z,-914.41
2019-03-06T02:28:23.641Z,-913.47
2019-03-06T02:29:23.914Z,-914.80
2019-03-06T02:30:24.209Z,-913.05
2019-03-06T02:31:24.443Z,-913.07
2019-03-06T02:32:24.789Z,-915.26
2019-03-06T02:33:25.017Z,-915.04
2019-03-06T02:34:25.284Z,-918.27
2019-03-06T02:35:25.571Z,-917.51
2019-03-06T02:36:25.825Z,-918.44
2019-03-06T02:37:26.084Z,-918.63
2019-03-06T02:38:26.398Z,-915.43
2019-03-06T02:39:26.661Z,-920.01
2019-03-06T02:40:26.969Z,-915.94
2019-03-06T02:41:27.275Z,-911.73
2019-03-06T02:42:27.482Z,-919.20
2019-03-06T02:43:27.793Z,-920.50
2019-03-06T02:44:28.067Z,-913.39
2019-03-06T02:45:28.327Z,-916.88
2019-03-06T02:46:28.631Z,-913.65
2019-03-06T02:47:28.904Z,-916.74
2019-03-06T02:48:29.192Z,-915.30
2019-03-06T02:49:29.574Z,-915.34
2019-03-06T02:50:29.726Z,-921.30
2019-03-06T02:51:30.019Z,-917.36
2019-03-06T02:52:30.275Z,-913.85
2019-03-06T02:53:30.555Z,-920.29
2019-03-06T02:54:30.835Z,-918.09
2019-03-06T02:55:31.101Z,-918.54
2019-03-06T02:56:31.398Z,-913.06
2019-03-06T02:57:31.772Z,-916.43
2019-03-06T02:58:31.947Z,-915.14
2019-03-06T02:59:32.244Z,-914.52
2019-03-06T03:00:32.517Z,-919.66
2019-03-06T03:01:32.794Z,-916.24
2019-03-06T03:02:33.057Z,-911.00
2019-03-06T03:03:33.352Z,-913.41
2019-03-06T03:04:33.604Z,-915.02
2019-03-06T03:05:33.977Z,-913.03
2019-03-06T03:06:34.389Z,-915.41
2019-03-06T03:07:34.434Z,-914.54
2019-03-06T03:08:34.717Z,-918.31
2019-03-06T03:09:34.986Z,-915.44
2019-03-06T03:10:35.269Z,-915.89
2019-03-06T03:11:35.547Z,-903.27
2019-03-06T03:12:35.806Z,-907.64
2019-03-06T03:13:36.156Z,-902.82
2019-03-06T03:14:36.432Z,-910.13
2019-03-06T03:15:36.609Z,-912.83
2019-03-06T03:16:36.926Z,-911.42
2019-03-06T03:17:37.195Z,-909.95
2019-03-06T03:18:37.493Z,-907.18
2019-03-06T03:19:37.771Z,-909.99
2019-03-06T03:20:38.030Z,-912.24
2019-03-06T03:21:38.315Z,-913.63
2019-03-06T03:22:38.667Z,-909.56
2019-03-06T03:23:38.895Z,-918.03
2019-03-06T03:24:39.168Z,-915.13
2019-03-06T03:25:39.422Z,-907.77
2019-03-06T03:26:39.720Z,-911.74
2019-03-06T03:27:39.959Z,-919.25
2019-03-06T03:28:40.271Z,-914.56
2019-03-06T03:29:40.550Z,-914.60
2019-03-06T03:30:40.950Z,-914.47
2019-03-06T03:31:41.086Z,-913.89
2019-03-06T03:32:41.436Z,-915.77
2019-03-06T03:33:41.672Z,-918.53
2019-03-06T03:34:41.956Z,-920.47
2019-03-06T03:35:42.211Z,-918.74
2019-03-06T03:36:42.512Z,-919.68
2019-03-06T03:37:42.750Z,-914.90
2019-03-06T03:38:43.098Z,-917.30
2019-03-06T03:39:43.311Z,-914.99
2019-03-06T03:40:43.589Z,-911.69
2019-03-06T03:41:43.877Z,-915.70
2019-03-06T03:42:44.130Z,-920.31
2019-03-06T03:43:44.398Z,-915.20
2019-03-06T03:44:44.721Z,-910.88
2019-03-06T03:45:44.969Z,-907.26
2019-03-06T03:46:45.297Z,-900.00
2019-03-06T03:47:45.503Z,-905.57
2019-03-06T03:48:45.771Z,-911.52
2019-03-06T03:49:46.074Z,-913.72
2019-03-06T03:50:46.353Z,-914.26
2019-03-06T03:51:46.643Z,-915.25
2019-03-06T03:52:46.918Z,-917.23
2019-03-06T03:53:47.192Z,-914.41
2019-03-06T03:54:47.538Z,-914.14
2019-03-06T03:55:47.765Z,-916.75
2019-03-06T03:56:48.051Z,-917.73
2019-03-06T03:57:48.309Z,-915.41
2019-03-06T03:58:48.587Z,-913.74
2019-03-06T03:59:48.889Z,-907.29
2019-03-06T04:00:49.131Z,-913.47
2019-03-06T04:01:49.433Z,-906.37
2019-03-06T04:02:49.713Z,-957.27
2019-03-06T04:03:50.111Z,-962.17
2019-03-06T04:04:50.303Z,-959.77
2019-03-06T04:05:50.513Z,-953.78
2019-03-06T04:06:50.819Z,-956.11
2019-03-06T04:07:51.077Z,-956.88
2019-03-06T04:08:51.357Z,-957.81
2019-03-06T04:09:51.682Z,-950.03
2019-03-06T04:10:51.929Z,-952.26
2019-03-06T04:11:52.300Z,-953.21
2019-03-06T04:12:52.457Z,-950.05
2019-03-06T04:13:52.733Z,-950.32
2019-03-06T04:14:53.049Z,-950.71
2019-03-06T04:15:53.285Z,-950.09
2019-03-06T04:16:53.568Z,-954.32
2019-03-06T04:17:53.836Z,-942.30
2019-03-06T04:18:54.132Z,-944.62
2019-03-06T04:19:54.501Z,-943.54
2019-03-06T04:20:54.665Z,-947.89
2019-03-06T04:21:54.973Z,-948.46
2019-03-06T04:22:55.212Z,-896.61
2019-03-06T04:23:55.504Z,-899.53
2019-03-06T04:24:55.825Z,-895.39
2019-03-06T04:25:56.056Z,-894.32
2019-03-06T04:26:56.346Z,-892.70
2019-03-06T04:27:56.625Z,-897.09
2019-03-06T04:28:56.870Z,-894.08
2019-03-06T04:29:57.223Z,-898.53
2019-03-06T04:30:57.449Z,-895.91
2019-03-06T04:31:57.736Z,-897.00
2019-03-06T04:32:58.008Z,-898.85
2019-03-06T04:33:58.268Z,-897.43
2019-03-06T04:34:58.592Z,-902.01
2019-03-06T04:35:58.892Z,-893.25
2019-03-06T04:36:59.201Z,-896.36
2019-03-06T04:37:59.385Z,-886.31
2019-03-06T04:38:59.644Z,-896.42
2019-03-06T04:40:00.303Z,-895.18
2019-03-06T04:41:00.230Z,-892.91
2019-03-06T04:42:00.532Z,-894.00
2019-03-06T04:43:00.783Z,-887.66
2019-03-06T04:44:01.299Z,-892.31
2019-03-06T04:45:01.512Z,-886.53
2019-03-06T04:46:01.605Z,-899.70
2019-03-06T04:47:01.880Z,-893.22
2019-03-06T04:48:02.154Z,-887.99
2019-03-06T04:49:02.438Z,-888.91
2019-03-06T04:50:02.775Z,-890.91
2019-03-06T04:51:02.978Z,-892.45
2019-03-06T04:52:03.275Z,-898.62
2019-03-06T04:53:03.650Z,-895.74
2019-03-06T04:54:03.838Z,-892.18
2019-03-06T04:55:04.157Z,-900.14
2019-03-06T04:56:04.370Z,-886.46
2019-03-06T04:57:04.664Z,-886.15
2019-03-06T04:58:04.950Z,-887.93
2019-03-06T04:59:05.232Z,-887.71
2019-03-06T05:00:05.779Z,-886.54
2019-03-06T05:01:05.822Z,-890.58
2019-03-06T05:02:06.034Z,-887.23
2019-03-06T05:03:06.353Z,-893.25
2019-03-06T05:04:06.599Z,-890.43
2019-03-06T05:05:06.918Z,-893.47
2019-03-06T05:06:07.160Z,-888.62
2019-03-06T05:07:07.440Z,-895.61
2019-03-06T05:08:07.747Z,-893.36
2019-03-06T05:09:08.046Z,-892.33
2019-03-06T05:10:08.385Z,-887.65
2019-03-06T05:11:08.546Z,-885.67
2019-03-06T05:12:08.810Z,-894.10
2019-03-06T05:13:09.098Z,-889.34
2019-03-06T05:14:09.373Z,-888.78
2019-03-06T05:15:09.723Z,-894.70
2019-03-06T05:16:09.927Z,-894.98
2019-03-06T05:17:10.209Z,-890.74
2019-03-06T05:18:10.648Z,-893.54
2019-03-06T05:19:10.753Z,-888.99
2019-03-06T05:20:11.089Z,-882.73
2019-03-06T05:21:11.306Z,-892.82
2019-03-06T05:22:11.577Z,-883.59
2019-03-06T05:23:11.871Z,-881.10
2019-03-06T05:24:12.120Z,-889.01
2019-03-06T05:25:12.462Z,-886.10
2019-03-06T05:26:12.834Z,-888.21
2019-03-06T05:27:12.974Z,-888.91
2019-03-06T05:28:13.276Z,-894.44
2019-03-06T05:29:13.514Z,-882.87
2019-03-06T05:30:13.850Z,-890.05
2019-03-06T05:31:14.097Z,-883.99
2019-03-06T05:32:14.375Z,-878.18
2019-03-06T05:33:14.671Z,-883.71
2019-03-06T05:34:15.607Z,-878.36
2019-03-06T05:35:15.220Z,-884.71
2019-03-06T05:36:15.476Z,-873.46
2019-03-06T05:37:15.770Z,-867.32
2019-03-06T05:38:16.609Z,-874.59
2019-03-06T05:39:16.316Z,-876.59
2019-03-06T05:40:16.644Z,-877.24
2019-03-06T05:41:16.846Z,-877.84
2019-03-06T05:42:17.177Z,-885.08
2019-03-06T05:43:17.434Z,-878.48
2019-03-06T05:44:17.697Z,-874.65
2019-03-06T05:45:18.019Z,-878.67
2019-03-06T05:46:18.250Z,-874.03
2019-03-06T05:47:18.503Z,-883.54
2019-03-06T05:48:18.821Z,-884.20
2019-03-06T05:49:19.080Z,-888.99
2019-03-06T05:50:20.257Z,-885.14
2019-03-06T05:51:19.789Z,-880.66
2019-03-06T05:52:19.909Z,-884.24
2019-03-06T05:53:20.221Z,-887.29
2019-03-06T05:54:20.481Z,-882.28
2019-03-06T05:55:20.791Z,-883.97
2019-03-06T05:56:21.036Z,-880.23
2019-03-06T05:57:21.315Z,-875.24
2019-03-06T05:58:21.589Z,-874.44
2019-03-06T05:59:21.966Z,-880.59
2019-03-06T06:00:22.206Z,-881.77
2019-03-06T06:01:22.493Z,-883.41
2019-03-06T06:02:22.772Z,-887.19
2019-03-06T06:03:23.044Z,-888.80
2019-03-06T06:04:23.350Z,-886.34
2019-03-06T06:05:23.604Z,-889.89
2019-03-06T06:06:23.898Z,-875.72
2019-03-06T06:07:24.252Z,-884.93
2019-03-06T06:08:24.432Z,-883.33
2019-03-06T06:09:24.705Z,-882.76
2019-03-06T06:10:24.980Z,-882.47
2019-03-06T06:11:25.284Z,-877.86
2019-03-06T06:12:25.534Z,-890.30
2019-03-06T06:13:25.830Z,-886.99
2019-03-06T06:14:26.088Z,-881.90
2019-03-06T06:15:26.393Z,-890.31
2019-03-06T06:16:26.651Z,-879.43
2019-03-06T06:17:26.906Z,-885.81
2019-03-06T06:18:27.274Z,-890.37
2019-03-06T06:19:27.463Z,-885.47
2019-03-06T06:20:27.723Z,-882.26
2019-03-06T06:21:28.305Z,-886.60
2019-03-06T06:22:28.559Z,-887.06
2019-03-06T06:23:29.112Z,-886.98
2019-03-06T06:24:29.198Z,-876.76
2019-03-06T06:25:29.368Z,-877.67
2019-03-06T06:26:29.674Z,-882.97
2019-03-06T06:27:29.937Z,-877.32
2019-03-06T06:28:30.229Z,-883.53
2019-03-06T06:29:30.491Z,-891.78
2019-03-06T06:30:30.768Z,-887.36
2019-03-06T06:31:31.105Z,-886.72
2019-03-06T06:32:32.865Z,-889.51
2019-03-06T06:33:31.620Z,-885.76
2019-03-06T06:34:31.877Z,-879.95
2019-03-06T06:35:32.149Z,-885.58
2019-03-06T06:36:32.452Z,-882.51
2019-03-06T06:37:32.687Z,-887.97
2019-03-06T06:38:33.019Z,-885.95
2019-03-06T06:39:33.277Z,-889.24
2019-03-06T06:40:35.552Z,-888.47
2019-03-06T06:41:33.816Z,-890.79
2019-03-06T06:42:34.053Z,-885.38
2019-03-06T06:43:34.373Z,-893.99
2019-03-06T06:44:34.649Z,-882.76
2019-03-06T06:45:34.908Z,-889.15
2019-03-06T06:46:35.196Z,-890.67
2019-03-06T06:47:35.460Z,-883.74
2019-03-06T06:48:35.778Z,-881.96
2019-03-06T06:49:36.017Z,-889.40
2019-03-06T06:50:36.280Z,-887.53
2019-03-06T06:51:36.573Z,-882.77
2019-03-06T06:52:36.843Z,-883.56
2019-03-06T06:53:37.122Z,-882.79
2019-03-06T06:54:37.366Z,-879.53
2019-03-06T06:55:37.658Z,-882.34
2019-03-06T06:56:37.986Z,-881.36
2019-03-06T06:57:38.255Z,-883.86
2019-03-06T06:58:38.505Z,-878.16
2019-03-06T06:59:38.759Z,-881.71
2019-03-06T07:00:39.048Z,-878.02
2019-03-06T07:01:39.364Z,-865.76
2019-03-06T07:02:39.676Z,-843.44
2019-03-06T07:03:39.913Z,-854.85
2019-03-06T07:04:40.198Z,-874.63
2019-03-06T07:05:40.635Z,-871.79
2019-03-06T07:06:40.742Z,-815.92
2019-03-06T07:07:40.999Z,-858.29
2019-03-06T07:08:41.280Z,-868.42
2019-03-06T07:09:41.552Z,-881.63
2019-03-06T07:10:41.824Z,-882.80
2019-03-06T07:11:42.124Z,-881.28
2019-03-06T07:12:42.416Z,-707.83
2019-03-06T07:13:42.769Z,-825.57
2019-03-06T07:14:42.966Z,-852.15
2019-03-06T07:15:43.251Z,-841.03
2019-03-06T07:16:43.542Z,-756.14
2019-03-06T07:17:43.810Z,-844.72
2019-03-06T07:18:44.079Z,-866.00
2019-03-06T07:19:44.371Z,-870.24
2019-03-06T07:20:44.664Z,-867.36
2019-03-06T07:21:44.995Z,-871.66
2019-03-06T07:22:45.176Z,-871.30
2019-03-06T07:23:45.467Z,-872.97
2019-03-06T07:24:45.761Z,-874.60
2019-03-06T07:25:46.039Z,-876.23
2019-03-06T07:26:46.327Z,-879.73
2019-03-06T07:27:46.569Z,-874.09
2019-03-06T07:28:46.849Z,-879.02
2019-03-06T07:29:47.207Z,-871.87
2019-03-06T07:30:47.396Z,-879.65
2019-03-06T07:31:47.683Z,-874.52
2019-03-06T07:32:47.963Z,-881.33
2019-03-06T07:33:48.227Z,-886.46
2019-03-06T07:34:48.526Z,-882.85
2019-03-06T07:35:48.800Z,-887.74
2019-03-06T07:36:49.085Z,-887.83
2019-03-06T07:37:49.411Z,-890.27
2019-03-06T07:38:49.676Z,-885.83
2019-03-06T07:39:49.917Z,-890.53
2019-03-06T07:40:50.175Z,-885.88
2019-03-06T07:41:50.478Z,-888.47
2019-03-06T07:42:50.738Z,-889.10
2019-03-06T07:43:50.994Z,-893.90
2019-03-06T07:44:51.299Z,-889.35
2019-03-06T07:45:51.593Z,-891.26
2019-03-06T07:46:51.953Z,-884.43
2019-03-06T07:47:52.124Z,-891.20
2019-03-06T07:48:52.411Z,-898.13
2019-03-06T07:49:52.690Z,-896.23
2019-03-06T07:50:52.948Z,-894.93
2019-03-06T07:51:53.251Z,-894.43
2019-03-06T07:52:53.515Z,-903.09
2019-03-06T07:53:53.803Z,-894.79
2019-03-06T07:54:54.178Z,-881.95
2019-03-06T07:55:54.327Z,-882.82
2019-03-06T07:56:54.626Z,-884.18
2019-03-06T07:57:54.885Z,-886.44
2019-03-06T07:58:55.448Z,-891.25
2019-03-06T07:59:55.447Z,-898.12
2019-03-06T08:00:55.698Z,-901.46
2019-03-06T08:01:56.021Z,-893.40
2019-03-06T08:02:56.314Z,-891.75
2019-03-06T08:03:56.523Z,-894.61
2019-03-06T08:04:56.822Z,-889.87
2019-03-06T08:05:57.082Z,-893.63
2019-03-06T08:06:57.369Z,-894.67
2019-03-06T08:07:57.632Z,-897.73
2019-03-06T08:08:57.934Z,-892.93
2019-03-06T08:09:58.222Z,-899.11
2019-03-06T08:10:58.520Z,-902.26
2019-03-06T08:11:58.755Z,-897.05
2019-03-06T08:12:59.032Z,-891.74
2019-03-06T08:13:59.325Z,-892.79
2019-03-06T08:14:59.607Z,-882.21
2019-03-06T08:15:59.867Z,-881.54
2019-03-06T08:17:00.154Z,-895.42
2019-03-06T08:18:00.407Z,-898.74
2019-03-06T08:19:00.724Z,-905.01
2019-03-06T08:20:01.134Z,-905.29
2019-03-06T08:21:01.263Z,-903.18
2019-03-06T08:22:01.528Z,-900.89
2019-03-06T08:23:01.836Z,-893.91
2019-03-06T08:24:02.139Z,-909.41
2019-03-06T08:25:02.421Z,-914.59
2019-03-06T08:26:02.675Z,-897.64
2019-03-06T08:27:02.957Z,-909.84
2019-03-06T08:28:03.373Z,-910.18
2019-03-06T08:29:03.565Z,-910.20
2019-03-06T08:30:03.806Z,-901.70
2019-03-06T08:31:04.062Z,-895.18
2019-03-06T08:32:04.350Z,-904.46
2019-03-06T08:33:04.633Z,-907.78
2019-03-06T08:34:04.913Z,-904.44
2019-03-06T08:35:05.185Z,-901.04
2019-03-06T08:36:05.499Z,-885.72
2019-03-06T08:37:05.706Z,-893.63
2019-03-06T08:38:06.006Z,-897.67
2019-03-06T08:39:06.279Z,-896.84
2019-03-06T08:40:06.552Z,-902.15
2019-03-06T08:41:06.817Z,-906.35
2019-03-06T08:42:07.097Z,-905.18
2019-03-06T08:43:07.390Z,-898.48
2019-03-06T08:44:07.719Z,-897.37
2019-03-06T08:45:07.905Z,-898.16
2019-03-06T08:46:08.184Z,-894.19
2019-03-06T08:47:08.483Z,-905.06
2019-03-06T08:48:08.783Z,-904.36
2019-03-06T08:49:09.073Z,-894.45
2019-03-06T08:50:09.330Z,-907.69
2019-03-06T08:51:09.580Z,-904.45
2019-03-06T08:52:09.883Z,-901.89
2019-03-06T08:53:10.247Z,-901.06
2019-03-06T08:54:10.542Z,-901.66
2019-03-06T08:55:10.923Z,-881.09
2019-03-06T08:56:10.959Z,-883.12
2019-03-06T08:57:11.249Z,-897.46
2019-03-06T08:58:11.560Z,-905.47
2019-03-06T08:59:11.841Z,-903.86
2019-03-06T09:00:12.114Z,-901.26
2019-03-06T09:01:12.475Z,-909.53
2019-03-06T09:02:15.443Z,-900.26
2019-03-06T09:03:13.038Z,-910.46
2019-03-06T09:04:13.279Z,-911.24
2019-03-06T09:05:13.580Z,-900.10
2019-03-06T09:06:13.844Z,-903.55
2019-03-06T09:07:14.108Z,-900.81
2019-03-06T09:08:14.423Z,-902.71
2019-03-06T09:09:14.794Z,-904.26
2019-03-06T09:10:14.977Z,-896.47
2019-03-06T09:11:15.225Z,-895.97
2019-03-06T09:12:15.508Z,-895.75
2019-03-06T09:13:15.785Z,-899.77
2019-03-06T09:14:16.059Z,-900.41
2019-03-06T09:15:16.383Z,-885.29
2019-03-06T09:16:16.638Z,-900.25
2019-03-06T09:17:16.940Z,-902.75
2019-03-06T09:18:17.148Z,-907.75
2019-03-06T09:19:17.419Z,-910.72
2019-03-06T09:20:17.720Z,-906.45
2019-03-06T09:21:17.983Z,-903.36
2019-03-06T09:22:18.259Z,-917.39
2019-03-06T09:23:23.100Z,-914.04
2019-03-06T09:24:18.822Z,-913.59
2019-03-06T09:25:19.109Z,-907.44
2019-03-06T09:26:19.439Z,-912.88
2019-03-06T09:27:19.671Z,-908.61
2019-03-06T09:28:20.559Z,-900.48
2019-03-06T09:29:20.227Z,-897.12
2019-03-06T09:30:20.509Z,-895.39
2019-03-06T09:31:20.795Z,-901.80
2019-03-06T09:32:21.053Z,-903.22
2019-03-06T09:33:21.381Z,-887.98
2019-03-06T09:34:21.731Z,-886.34
2019-03-06T09:35:21.887Z,-846.16
2019-03-06T09:36:22.196Z,-877.04
2019-03-06T09:37:22.457Z,-901.44
2019-03-06T09:38:22.972Z,-792.73
2019-03-06T09:39:23.007Z,-866.48
2019-03-06T09:40:23.302Z,-900.66
2019-03-06T09:41:23.559Z,-874.47
2019-03-06T09:42:23.968Z,-865.25
2019-03-06T09:43:24.132Z,-876.22
2019-03-06T09:44:24.403Z,-908.31
2019-03-06T09:45:24.706Z,-903.60
2019-03-06T09:46:24.954Z,-905.01
2019-03-06T09:47:26.134Z,-900.85
2019-03-06T09:48:25.525Z,-903.88
2019-03-06T09:49:25.786Z,-908.89
2019-03-06T09:50:26.132Z,-898.15
2019-03-06T09:51:26.319Z,-903.49
2019-03-06T09:52:26.580Z,-903.31
2019-03-06T09:53:27.636Z,-902.44
2019-03-06T09:54:27.196Z,-905.00
2019-03-06T09:55:27.431Z,-895.50
2019-03-06T09:56:27.752Z,-891.26
2019-03-06T09:57:27.980Z,-868.69
2019-03-06T09:58:28.315Z,-889.06
2019-03-06T09:59:28.526Z,-897.41
2019-03-06T10:00:28.805Z,-905.89
2019-03-06T10:01:29.121Z,-914.77
2019-03-06T10:02:29.394Z,-912.88
2019-03-06T10:03:29.646Z,-917.89
2019-03-06T10:04:29.913Z,-915.92
2019-03-06T10:05:30.209Z,-924.70
2019-03-06T10:06:30.575Z,-918.39
2019-03-06T10:07:30.842Z,-912.49
2019-03-06T10:08:31.041Z,-920.35
2019-03-06T10:09:31.314Z,-919.87
2019-03-06T10:10:31.589Z,-916.98
2019-03-06T10:11:31.904Z,-916.95
2019-03-06T10:12:32.146Z,-911.64
2019-03-06T10:13:32.438Z,-915.80
2019-03-06T10:14:32.702Z,-908.13
2019-03-06T10:15:33.115Z,-905.23
2019-03-06T10:16:33.276Z,-912.72
2019-03-06T10:17:33.549Z,-913.55
2019-03-06T10:18:33.831Z,-916.11
2019-03-06T10:19:34.103Z,-908.76
2019-03-06T10:20:34.366Z,-904.07
2019-03-06T10:21:34.683Z,-902.97
2019-03-06T10:22:34.944Z,-899.24
2019-03-06T10:23:35.299Z,-906.61
2019-03-06T10:24:35.546Z,-892.26
2019-03-06T10:25:35.763Z,-907.64
2019-03-06T10:26:36.075Z,-903.04
2019-03-06T10:27:36.332Z,-902.34
2019-03-06T10:28:36.739Z,-906.61
2019-03-06T10:29:36.916Z,-906.41
2019-03-06T10:30:37.192Z,-919.89
2019-03-06T10:31:38.512Z,-911.27
2019-03-06T10:32:37.719Z,-905.25
2019-03-06T10:33:38.005Z,-912.02
2019-03-06T10:34:38.293Z,-904.41
2019-03-06T10:35:38.573Z,-879.55
2019-03-06T10:36:38.855Z,-908.36
2019-03-06T10:37:39.110Z,-905.46
2019-03-06T10:38:39.403Z,-906.41
2019-03-06T10:39:39.754Z,-915.87
2019-03-06T10:40:40.020Z,-905.44
2019-03-06T10:41:40.293Z,-914.60
2019-03-06T10:42:40.503Z,-907.57
2019-03-06T10:43:46.452Z,-915.10
2019-03-06T10:44:42.087Z,-910.07
2019-03-06T10:45:41.914Z,-897.69
2019-03-06T10:46:41.657Z,-903.02
2019-03-06T10:47:41.905Z,-901.14
2019-03-06T10:48:42.291Z,-892.81
2019-03-06T10:49:42.488Z,-902.26
2019-03-06T10:50:42.734Z,-917.00
2019-03-06T10:51:43.058Z,-911.09
2019-03-06T10:52:43.262Z,-910.70
2019-03-06T10:53:43.537Z,-905.49
2019-03-06T10:55:45.112Z,-909.53
2019-03-06T10:56:44.534Z,-912.30
2019-03-06T10:57:44.646Z,-909.79
2019-03-06T10:58:44.938Z,-923.93
2019-03-06T10:59:45.250Z,-910.93
2019-03-06T11:00:45.511Z,-925.26
2019-03-06T11:01:45.826Z,-924.51
2019-03-06T11:02:46.061Z,-916.30
2019-03-06T11:03:46.340Z,-914.65
2019-03-06T11:04:46.677Z,-919.07
2019-03-06T11:05:46.882Z,-918.10
2019-03-06T11:06:47.212Z,-915.10
2019-03-06T11:07:47.437Z,-906.24
2019-03-06T11:08:47.714Z,-909.72
2019-03-06T11:09:48.031Z,-905.41
2019-03-06T11:10:48.249Z,-908.06
2019-03-06T11:11:48.577Z,-908.42
2019-03-06T11:12:48.871Z,-900.73
2019-03-06T11:13:49.081Z,-907.66
2019-03-06T11:14:49.386Z,-901.86
2019-03-06T11:15:55.391Z,-870.14
2019-03-06T11:16:50.966Z,-893.39
2019-03-06T11:17:50.446Z,-899.11
2019-03-06T11:18:50.485Z,-895.11
2019-03-06T11:19:50.789Z,-911.58
2019-03-06T11:20:51.061Z,-901.91
2019-03-06T11:21:51.486Z,-889.45
2019-03-06T11:22:51.598Z,-887.70
2019-03-06T11:23:51.879Z,-894.36
2019-03-06T11:24:52.171Z,-888.05
2019-03-06T11:25:52.426Z,-887.24
2019-03-06T11:26:52.748Z,-903.32
2019-03-06T11:27:52.968Z,-904.52
2019-03-06T11:28:53.260Z,-903.41
2019-03-06T11:29:53.688Z,-910.49
2019-03-06T11:30:53.813Z,-917.07
2019-03-06T11:31:54.100Z,-915.14
2019-03-06T11:32:54.782Z,-905.24
2019-03-06T11:33:54.687Z,-900.63
2019-03-06T11:34:54.985Z,-887.51
2019-03-06T11:35:55.243Z,-911.22
2019-03-06T11:36:55.518Z,-893.70
2019-03-06T11:37:55.844Z,-889.10
2019-03-06T11:38:56.077Z,-895.54
2019-03-06T11:39:56.367Z,-910.11
2019-03-06T11:40:56.653Z,-898.45
2019-03-06T11:41:56.910Z,-904.22
2019-03-06T11:42:57.224Z,-907.52
2019-03-06T11:43:57.450Z,-909.23
2019-03-06T11:44:57.776Z,-900.81
2019-03-06T11:45:58.081Z,-901.26
2019-03-06T11:46:58.280Z,-901.76
2019-03-06T11:47:58.575Z,-907.13
2019-03-06T11:48:58.827Z,-891.42
2019-03-06T11:49:59.124Z,-903.81
2019-03-06T11:50:59.386Z,-900.11
2019-03-06T11:51:59.671Z,-898.81
2019-03-06T11:53:00.063Z,-916.69
2019-03-06T11:54:00.280Z,-898.70
2019-03-06T11:55:05.887Z,-890.62
2019-03-06T11:56:01.769Z,-855.68
2019-03-06T11:57:01.059Z,-887.29
2019-03-06T11:58:01.369Z,-901.31
2019-03-06T11:59:01.614Z,-910.69
2019-03-06T12:00:01.920Z,-906.97
2019-03-06T12:01:02.145Z,-903.92
2019-03-06T12:02:02.454Z,-919.76
2019-03-06T12:03:02.902Z,-909.20
2019-03-06T12:04:03.002Z,-901.57
2019-03-06T12:05:03.278Z,-910.70
2019-03-06T12:06:03.532Z,-905.77
2019-03-06T12:07:03.828Z,-900.82
2019-03-06T12:08:04.136Z,-906.09
2019-03-06T12:09:04.389Z,-914.25
2019-03-06T12:10:04.690Z,-906.69